KGSB

Seymour Johnson AFB Airport

Goldsboro, North Carolina, USA
METAR KGSB 232156Z AUTO 17004KT 10SM CLR 24/16 A3032 RMK AO2 SLP270 T02420157 $
Observed Flight Rules
Feb-23 @ 21:56 UTC (42 minutes ago) Visual Flight Rules
Wind Visibility Clouds
170° at 4 knots 10 miles
  • Clear skies
Temperatures Readings
Current 24°C / 75°F
Dewpoint 16°C / 61°F
Humidity 61%
Altimeter 30.32" Hg
Pressure 1027 hPa
Elevation 33
METAR KGSB 232156Z AUTO 17004KT 10SM CLR 24/16 A3032 RMK AO2 SLP270 T02420157 $
Observed Flight Rules
Feb-23 @ 21:56 UTC
(42 minutes ago)
VFR
Wind Visibility
170° at 4 knots 10 miles
Clouds
  • Clear skies
Temperature Dewpoint
24°C / 75°F 16°C / 61°F
Humidity Altimeter Pressure
61% 30.32" Hg 1027 hPa